createdAt,value
2022-11-26T00:02:23.910Z,82.51
2022-11-26T00:04:53.685Z,82.70
2022-11-26T00:07:26.017Z,82.87
2022-11-26T00:09:55.689Z,82.87
2022-11-26T00:12:31.157Z,82.98
2022-11-26T00:15:00.117Z,83.13
2022-11-26T00:17:27.597Z,83.32
2022-11-26T00:19:55.291Z,83.39
2022-11-26T00:22:32.285Z,83.38
2022-11-26T00:25:00.105Z,83.33
2022-11-26T00:27:28.400Z,83.20
2022-11-26T00:29:56.533Z,83.22
2022-11-26T00:32:26.238Z,83.14
2022-11-26T00:34:54.162Z,83.06
2022-11-26T00:37:26.109Z,83.14
2022-11-26T00:39:55.177Z,83.22
2022-11-26T00:42:23.431Z,83.23
2022-11-26T00:44:50.951Z,83.33
2022-11-26T00:47:18.779Z,83.23
2022-11-26T00:49:46.542Z,83.28
2022-11-26T00:52:33.617Z,83.08
2022-11-26T00:55:09.707Z,82.95
2022-11-26T00:57:37.245Z,82.75
2022-11-26T01:00:18.672Z,82.78
2022-11-26T01:02:46.676Z,82.79
2022-11-26T01:05:14.946Z,82.62
2022-11-26T01:07:45.776Z,82.66
2022-11-26T01:10:20.993Z,82.54
2022-11-26T01:12:49.438Z,82.59
2022-11-26T01:15:18.477Z,82.58
2022-11-26T01:17:46.904Z,82.54
2022-11-26T01:20:31.055Z,82.68
2022-11-26T01:22:59.284Z,82.83
2022-11-26T01:25:27.351Z,82.81
2022-11-26T01:27:55.273Z,82.83
2022-11-26T01:30:28.381Z,82.99
2022-11-26T01:32:56.671Z,82.99
2022-11-26T01:35:24.501Z,82.85
2022-11-26T01:37:52.426Z,82.89
2022-11-26T01:40:37.818Z,82.94
2022-11-26T01:43:26.409Z,83.00
2022-11-26T01:45:56.332Z,82.99
2022-11-26T01:48:33.117Z,82.97
2022-11-26T01:51:07.745Z,82.96
2022-11-26T01:53:49.624Z,82.91
2022-11-26T01:56:28.985Z,82.79
2022-11-26T01:59:20.601Z,82.68
2022-11-26T02:01:52.658Z,82.70
2022-11-26T02:04:27.521Z,82.53
2022-11-26T02:06:56.489Z,82.52
2022-11-26T02:09:26.500Z,82.53
2022-11-26T02:11:54.624Z,82.54
2022-11-26T02:14:30.670Z,82.60
2022-11-26T02:17:19.137Z,82.50
2022-11-26T02:20:07.989Z,82.36
2022-11-26T02:23:07.279Z,82.36
2022-11-26T02:26:04.401Z,82.33
2022-11-26T02:29:07.851Z,82.23
2022-11-26T02:31:59.691Z,82.02
2022-11-26T02:34:47.581Z,81.97
2022-11-26T02:37:23.144Z,82.03
2022-11-26T02:39:51.539Z,81.81
2022-11-26T02:42:27.032Z,81.77
2022-11-26T02:45:05.201Z,81.75
2022-11-26T02:47:34.639Z,81.67
2022-11-26T02:50:07.745Z,81.62
2022-11-26T02:52:39.824Z,81.59
2022-11-26T02:55:10.588Z,81.48
2022-11-26T02:57:48.301Z,81.47
2022-11-26T03:00:17.988Z,81.51
2022-11-26T03:02:59.843Z,81.44
2022-11-26T03:05:31.600Z,81.50
2022-11-26T03:08:01.174Z,81.55
2022-11-26T03:10:30.579Z,81.73
2022-11-26T03:12:58.654Z,81.74
2022-11-26T03:15:26.981Z,81.88
2022-11-26T03:17:54.644Z,81.65
2022-11-26T03:20:22.449Z,81.53
2022-11-26T03:22:50.271Z,81.54
2022-11-26T03:25:18.044Z,81.69
2022-11-26T03:27:45.795Z,81.87
2022-11-26T03:30:13.793Z,81.97
2022-11-26T03:32:41.541Z,81.95
2022-11-26T03:35:09.604Z,81.87
2022-11-26T03:37:37.357Z,81.80
2022-11-26T03:40:07.339Z,81.76
2022-11-26T03:42:35.756Z,81.83
2022-11-26T03:45:04.353Z,81.97
2022-11-26T03:47:31.871Z,82.12
2022-11-26T03:49:59.697Z,82.14
2022-11-26T03:52:27.379Z,82.23
2022-11-26T03:54:55.367Z,82.18
2022-11-26T03:57:23.222Z,82.27
2022-11-26T03:59:50.766Z,82.28
2022-11-26T04:02:18.467Z,82.23
2022-11-26T04:04:46.279Z,82.25
2022-11-26T04:07:14.117Z,82.30
2022-11-26T04:09:41.847Z,82.30
2022-11-26T04:12:09.517Z,82.25
2022-11-26T04:14:37.549Z,82.28
2022-11-26T04:17:05.425Z,82.34
2022-11-26T04:19:33.359Z,82.35
2022-11-26T04:22:01.082Z,82.46
2022-11-26T04:24:28.976Z,82.38
2022-11-26T04:26:56.572Z,82.41
2022-11-26T04:29:24.488Z,82.39
2022-11-26T04:31:52.053Z,82.43
2022-11-26T04:34:19.743Z,82.34
2022-11-26T04:36:47.297Z,82.44
2022-11-26T04:39:15.164Z,82.46
2022-11-26T04:41:42.750Z,82.49
2022-11-26T04:44:10.527Z,82.49
2022-11-26T04:46:38.220Z,82.53
2022-11-26T04:49:05.750Z,82.52
2022-11-26T04:51:33.379Z,82.50
2022-11-26T04:54:03.349Z,82.47
2022-11-26T04:56:30.422Z,82.48
2022-11-26T04:58:58.191Z,82.40
2022-11-26T05:01:26.670Z,82.45
2022-11-26T05:03:54.500Z,82.54
2022-11-26T05:06:22.159Z,82.46
2022-11-26T05:08:49.927Z,82.48
2022-11-26T05:11:17.922Z,82.65
2022-11-26T05:13:45.277Z,82.74
2022-11-26T05:16:12.675Z,82.77
2022-11-26T05:18:40.447Z,82.93
2022-11-26T05:21:08.109Z,83.06
2022-11-26T05:23:35.809Z,83.16
2022-11-26T05:26:03.629Z,83.36
2022-11-26T05:28:31.543Z,83.41
2022-11-26T05:31:02.564Z,83.35
2022-11-26T05:33:30.614Z,83.48
2022-11-26T05:35:58.212Z,83.56
2022-11-26T05:38:25.989Z,83.65
2022-11-26T05:40:53.458Z,83.58
2022-11-26T05:43:21.037Z,83.49
2022-11-26T05:45:48.796Z,83.54
2022-11-26T05:48:16.706Z,83.54
2022-11-26T05:50:44.506Z,83.54
2022-11-26T05:53:12.567Z,83.57
2022-11-26T05:55:40.564Z,83.55
2022-11-26T05:58:09.268Z,83.59
2022-11-26T06:00:36.931Z,83.57
2022-11-26T06:03:04.990Z,83.50
2022-11-26T06:05:32.786Z,83.43
2022-11-26T06:08:00.553Z,83.51
2022-11-26T06:10:28.372Z,83.60
2022-11-26T06:12:56.296Z,83.56
2022-11-26T06:15:24.249Z,83.58
2022-11-26T06:17:51.876Z,83.60
2022-11-26T06:20:19.652Z,83.73
2022-11-26T06:22:47.478Z,83.79
2022-11-26T06:25:15.285Z,83.97
2022-11-26T06:27:43.688Z,84.06
2022-11-26T06:30:12.527Z,84.25
2022-11-26T06:32:40.165Z,84.34
2022-11-26T06:35:08.986Z,84.46
2022-11-26T06:37:36.824Z,84.44
2022-11-26T06:40:05.695Z,84.41
2022-11-26T06:42:33.319Z,84.17
2022-11-26T06:45:00.966Z,84.22
2022-11-26T06:47:28.630Z,84.15
2022-11-26T06:49:56.515Z,84.29
2022-11-26T06:52:26.155Z,84.27
2022-11-26T06:54:55.436Z,84.43
2022-11-26T06:57:23.094Z,84.48
2022-11-26T06:59:51.811Z,84.52
2022-11-26T07:02:19.905Z,84.48
2022-11-26T07:04:47.893Z,84.58
2022-11-26T07:07:15.840Z,84.74
2022-11-26T07:09:43.947Z,84.72
2022-11-26T07:12:12.100Z,84.51
2022-11-26T07:14:40.397Z,84.51
2022-11-26T07:17:08.481Z,84.57
2022-11-26T07:19:36.536Z,84.69
2022-11-26T07:22:04.299Z,84.91
2022-11-26T07:24:32.261Z,84.99
2022-11-26T07:26:59.970Z,85.07
2022-11-26T07:29:27.985Z,85.04
2022-11-26T07:31:56.091Z,85.02
2022-11-26T07:34:23.899Z,84.91
2022-11-26T07:36:56.773Z,84.72
2022-11-26T07:39:21.493Z,84.70
2022-11-26T07:41:49.212Z,84.75
2022-11-26T07:44:16.877Z,84.53
2022-11-26T07:46:44.568Z,84.62
2022-11-26T07:49:12.214Z,84.75
2022-11-26T07:51:40.299Z,84.93
2022-11-26T07:54:09.386Z,84.91
2022-11-26T07:56:37.100Z,84.83
2022-11-26T07:59:04.866Z,84.66
2022-11-26T08:01:33.307Z,84.46
2022-11-26T08:04:05.395Z,84.44
2022-11-26T08:06:34.064Z,84.13
2022-11-26T08:09:03.294Z,83.90
2022-11-26T08:11:33.377Z,83.98
2022-11-26T08:14:08.953Z,83.88
2022-11-26T08:16:37.225Z,83.84
2022-11-26T08:19:11.324Z,83.67
2022-11-26T08:21:41.395Z,83.73
2022-11-26T08:24:14.021Z,83.54
2022-11-26T08:26:44.481Z,83.57
2022-11-26T08:29:14.615Z,83.38
2022-11-26T08:31:46.345Z,83.18
2022-11-26T08:34:15.713Z,83.10
2022-11-26T08:36:45.093Z,82.84
2022-11-26T08:39:16.694Z,83.02
2022-11-26T08:41:51.680Z,83.11
2022-11-26T08:44:15.104Z,82.79
2022-11-26T08:46:42.958Z,82.75
2022-11-26T08:49:13.035Z,82.79
2022-11-26T08:51:41.483Z,82.90
2022-11-26T08:54:09.878Z,83.17
2022-11-26T08:56:37.858Z,82.87
2022-11-26T08:59:06.134Z,83.01
2022-11-26T09:01:35.023Z,82.74
2022-11-26T09:04:04.745Z,82.55
2022-11-26T09:06:36.467Z,82.59
2022-11-26T09:09:15.068Z,82.57
2022-11-26T09:11:56.896Z,82.53
2022-11-26T09:14:31.111Z,82.59
2022-11-26T09:16:58.924Z,82.59
2022-11-26T09:19:28.170Z,82.65
2022-11-26T09:21:56.198Z,82.80
2022-11-26T09:24:24.275Z,82.36
2022-11-26T09:26:52.674Z,82.46
2022-11-26T09:29:22.777Z,82.44
2022-11-26T09:34:20.458Z,82.45
2022-11-26T09:36:48.006Z,82.17
2022-11-26T09:39:17.058Z,82.23
2022-11-26T09:42:02.279Z,82.30
2022-11-26T09:45:12.033Z,82.18
2022-11-26T09:47:45.140Z,81.88
2022-11-26T09:50:27.508Z,81.95
2022-11-26T09:53:22.014Z,82.07
2022-11-26T09:55:53.424Z,82.01
2022-11-26T09:58:40.750Z,81.12
2022-11-26T10:01:13.930Z,81.24
2022-11-26T10:03:41.887Z,81.25
2022-11-26T10:06:48.402Z,81.34
2022-11-26T10:09:37.758Z,81.49
2022-11-26T10:12:50.524Z,81.42
2022-11-26T10:15:15.522Z,81.21
2022-11-26T10:18:06.407Z,81.35
2022-11-26T10:21:26.843Z,81.40
2022-11-26T10:24:04.744Z,81.50
2022-11-26T10:26:37.690Z,81.92
2022-11-26T10:29:28.606Z,81.81
2022-11-26T10:32:02.501Z,81.71
2022-11-26T10:34:41.668Z,81.55
2022-11-26T10:37:10.490Z,81.51
2022-11-26T10:39:38.200Z,81.21
2022-11-26T10:42:19.425Z,81.08
2022-11-26T10:44:49.694Z,80.84
2022-11-26T10:47:30.715Z,80.95
2022-11-26T10:50:25.191Z,81.10
2022-11-26T10:52:38.729Z,81.07
2022-11-26T10:55:11.933Z,81.05
2022-11-26T10:57:49.813Z,81.09
2022-11-26T11:00:40.270Z,81.11
2022-11-26T11:04:06.685Z,80.89
2022-11-26T11:06:28.480Z,81.02
2022-11-26T11:08:56.125Z,80.98
2022-11-26T11:11:28.115Z,80.72
2022-11-26T11:13:57.369Z,80.81
2022-11-26T11:16:33.251Z,81.00
2022-11-26T11:19:05.357Z,81.12
2022-11-26T11:21:37.999Z,81.15
2022-11-26T11:24:25.207Z,81.30
2022-11-26T11:27:01.319Z,81.06
2022-11-26T11:33:12.354Z,81.08
2022-11-26T11:33:14.358Z,81.09
2022-11-26T11:39:40.282Z,81.22
2022-11-26T11:42:27.491Z,81.01
2022-11-26T11:44:58.029Z,81.06
2022-11-26T11:47:43.702Z,81.08
2022-11-26T11:50:43.120Z,81.08
2022-11-26T11:53:40.599Z,81.20
2022-11-26T11:56:32.295Z,81.08
2022-11-26T11:59:20.578Z,81.23
2022-11-26T12:02:21.448Z,81.50
2022-11-26T12:05:02.580Z,81.56
2022-11-26T12:08:08.787Z,81.50
2022-11-26T12:11:10.705Z,81.33
2022-11-26T12:13:46.538Z,81.48
2022-11-26T12:16:17.037Z,81.59
2022-11-26T12:18:50.132Z,81.68
2022-11-26T12:21:23.274Z,81.65
2022-11-26T12:24:17.682Z,81.62
2022-11-26T12:26:56.993Z,81.57
2022-11-26T12:29:42.011Z,81.64
2022-11-26T12:32:40.163Z,81.49
2022-11-26T12:35:34.028Z,81.30
2022-11-26T12:38:12.975Z,81.16
2022-11-26T12:41:03.365Z,80.99
2022-11-26T12:44:00.759Z,80.95
2022-11-26T12:47:00.862Z,80.82
2022-11-26T12:50:03.922Z,80.76
2022-11-26T12:53:06.176Z,80.59
2022-11-26T12:56:00.926Z,80.68
2022-11-26T12:58:49.175Z,80.60
2022-11-26T13:01:17.366Z,80.56
2022-11-26T13:03:45.470Z,80.54
2022-11-26T13:06:24.595Z,80.48
2022-11-26T13:09:31.045Z,80.50
2022-11-26T13:12:38.605Z,80.42
2022-11-26T13:15:27.149Z,80.42
2022-11-26T13:17:57.019Z,80.27
2022-11-26T13:20:48.487Z,80.40
2022-11-26T13:23:46.113Z,80.30
2022-11-26T13:26:48.685Z,79.90
2022-11-26T13:29:36.579Z,80.17
2022-11-26T13:32:26.375Z,80.19
2022-11-26T13:35:36.253Z,80.09
2022-11-26T13:38:28.104Z,80.21
2022-11-26T13:41:34.686Z,80.12
2022-11-26T13:44:14.992Z,80.14
2022-11-26T13:47:25.123Z,80.10
2022-11-26T13:50:16.304Z,80.40
2022-11-26T13:52:58.508Z,80.14
2022-11-26T13:55:34.332Z,80.18
2022-11-26T13:58:10.718Z,80.26
2022-11-26T14:00:39.102Z,80.32
2022-11-26T14:03:08.942Z,80.51
2022-11-26T14:06:01.300Z,80.84
2022-11-26T14:08:42.776Z,80.48
2022-11-26T14:11:14.427Z,80.52
2022-11-26T14:13:42.828Z,80.49
2022-11-26T14:16:10.917Z,80.45
2022-11-26T14:18:56.277Z,80.46
2022-11-26T14:21:27.065Z,80.43
2022-11-26T14:24:04.820Z,80.47
2022-11-26T14:26:39.360Z,80.34
2022-11-26T14:29:13.125Z,80.45
2022-11-26T14:31:54.012Z,80.46
2022-11-26T14:34:33.349Z,80.35
2022-11-26T14:37:02.369Z,80.41
2022-11-26T14:39:31.436Z,80.53
2022-11-26T14:42:05.568Z,80.44
2022-11-26T14:44:29.844Z,80.43
2022-11-26T14:47:05.443Z,80.43
2022-11-26T14:49:44.366Z,80.50
2022-11-26T14:52:20.221Z,80.61
2022-11-26T14:54:54.835Z,80.60
2022-11-26T14:57:30.928Z,80.64
2022-11-26T15:00:03.871Z,80.71
2022-11-26T15:02:35.187Z,80.77
2022-11-26T15:05:14.155Z,80.74
2022-11-26T15:07:42.246Z,80.74
2022-11-26T15:10:20.525Z,80.73
2022-11-26T15:12:52.092Z,80.81
2022-11-26T15:15:23.222Z,80.77
2022-11-26T15:17:58.625Z,80.83
2022-11-26T15:20:28.094Z,80.94
2022-11-26T15:22:59.846Z,80.99
2022-11-26T15:25:32.310Z,81.03
2022-11-26T15:28:21.999Z,80.98
2022-11-26T15:31:02.615Z,80.97
2022-11-26T15:33:35.922Z,80.95
2022-11-26T15:36:06.413Z,80.90
2022-11-26T15:38:37.464Z,80.91
2022-11-26T15:41:16.252Z,80.90
2022-11-26T15:43:55.480Z,81.00
2022-11-26T15:46:30.791Z,80.91
2022-11-26T15:49:06.646Z,80.97
2022-11-26T15:51:59.795Z,81.04
2022-11-26T15:54:49.737Z,81.07
2022-11-26T15:57:08.188Z,81.06
2022-11-26T15:59:46.706Z,81.08
2022-11-26T16:02:23.503Z,81.04
2022-11-26T16:04:57.476Z,81.07
2022-11-26T16:07:29.003Z,81.10
2022-11-26T16:10:22.975Z,81.10
2022-11-26T16:13:19.177Z,81.16
2022-11-26T16:15:57.860Z,81.20
2022-11-26T16:18:39.751Z,81.26
2022-11-26T16:21:15.410Z,81.30
2022-11-26T16:23:43.262Z,81.31
2022-11-26T16:26:19.650Z,81.31
2022-11-26T16:28:48.001Z,81.35
2022-11-26T16:31:18.146Z,81.32
2022-11-26T16:33:46.311Z,81.39
2022-11-26T16:36:28.173Z,81.33
2022-11-26T16:38:56.661Z,81.34
2022-11-26T16:41:24.647Z,81.30
2022-11-26T16:43:52.922Z,81.31
2022-11-26T16:46:23.903Z,81.50
2022-11-26T16:48:52.198Z,81.64
2022-11-26T16:51:21.185Z,81.65
2022-11-26T16:53:49.247Z,81.72
2022-11-26T16:56:35.285Z,81.80
2022-11-26T16:59:06.551Z,81.86
2022-11-26T17:01:35.521Z,81.96
2022-11-26T17:04:02.984Z,82.02
2022-11-26T17:06:33.599Z,82.06
2022-11-26T17:09:03.291Z,82.14
2022-11-26T17:11:30.945Z,82.32
2022-11-26T17:13:58.343Z,82.42
2022-11-26T17:16:25.971Z,82.52
2022-11-26T17:18:53.985Z,82.51
2022-11-26T17:21:22.442Z,82.57
2022-11-26T17:23:50.970Z,82.58
2022-11-26T17:26:23.876Z,82.64
2022-11-26T17:28:51.960Z,82.59
2022-11-26T17:31:19.898Z,82.58
2022-11-26T17:33:50.174Z,82.63
2022-11-26T17:36:20.913Z,82.83
2022-11-26T17:38:51.095Z,82.88
2022-11-26T17:41:19.311Z,83.03
2022-11-26T17:43:46.939Z,83.14
2022-11-26T17:46:19.536Z,83.13
2022-11-26T17:48:49.071Z,83.07
2022-11-26T17:51:17.629Z,83.19
2022-11-26T17:53:45.522Z,83.27
2022-11-26T17:56:20.466Z,83.37
2022-11-26T17:58:48.558Z,83.41
2022-11-26T18:01:17.189Z,83.46
2022-11-26T18:03:45.716Z,83.51
2022-11-26T18:06:17.086Z,83.56
2022-11-26T18:08:45.857Z,83.52
2022-11-26T18:11:15.850Z,83.55
2022-11-26T18:13:44.828Z,83.53
2022-11-26T18:16:12.282Z,83.54
2022-11-26T18:18:40.142Z,83.56
2022-11-26T18:21:08.586Z,83.65
2022-11-26T18:23:36.101Z,83.65
2022-11-26T18:26:04.147Z,83.69
2022-11-26T18:28:32.113Z,83.63
2022-11-26T18:30:59.573Z,83.64
2022-11-26T18:33:27.598Z,83.58
2022-11-26T18:35:55.043Z,83.49
2022-11-26T18:38:24.784Z,83.38
2022-11-26T18:41:01.599Z,83.32
2022-11-26T18:43:31.662Z,83.42
2022-11-26T18:46:04.301Z,83.50
2022-11-26T18:48:36.125Z,83.58
2022-11-26T18:51:05.302Z,83.67
2022-11-26T18:53:33.697Z,83.63
2022-11-26T18:56:01.808Z,83.66
2022-11-26T18:58:30.171Z,83.58
2022-11-26T19:00:58.178Z,83.62
2022-11-26T19:03:27.503Z,83.57
2022-11-26T19:05:55.522Z,83.73
2022-11-26T19:08:23.753Z,83.83
2022-11-26T19:10:51.417Z,83.79
2022-11-26T19:13:19.707Z,83.79
2022-11-26T19:15:50.268Z,83.67
2022-11-26T19:18:18.145Z,83.77
2022-11-26T19:20:50.815Z,83.85
2022-11-26T19:23:21.092Z,83.94
2022-11-26T19:25:49.504Z,83.96
2022-11-26T19:28:17.613Z,83.92
2022-11-26T19:30:45.314Z,84.00
2022-11-26T19:33:12.997Z,83.91
2022-11-26T19:35:41.148Z,83.94
2022-11-26T19:38:08.742Z,83.87
2022-11-26T19:40:39.009Z,83.86
2022-11-26T19:43:06.667Z,83.72
2022-11-26T19:45:34.273Z,83.84
2022-11-26T19:48:02.196Z,83.87
2022-11-26T19:50:29.711Z,83.82
2022-11-26T19:52:57.132Z,83.88
2022-11-26T19:55:24.750Z,83.79
2022-11-26T19:57:52.398Z,83.77
2022-11-26T20:00:20.942Z,83.84
2022-11-26T20:02:48.556Z,83.87
2022-11-26T20:05:16.512Z,83.76
2022-11-26T20:07:44.793Z,83.79
2022-11-26T20:10:14.450Z,83.79
2022-11-26T20:12:42.276Z,83.86
2022-11-26T20:15:10.969Z,83.81
2022-11-26T20:17:38.714Z,83.87
2022-11-26T20:20:07.767Z,83.85
2022-11-26T20:22:36.958Z,83.80
2022-11-26T20:25:05.941Z,83.70
2022-11-26T20:27:37.212Z,83.67
2022-11-26T20:30:15.013Z,83.73
2022-11-26T20:32:46.937Z,83.78
2022-11-26T20:35:21.831Z,83.74
2022-11-26T20:37:50.679Z,83.78
2022-11-26T20:40:18.718Z,83.78
2022-11-26T20:42:46.491Z,83.82
2022-11-26T20:45:14.860Z,83.79
2022-11-26T20:47:42.479Z,83.73
2022-11-26T20:50:10.869Z,83.64
2022-11-26T20:52:38.792Z,83.65
2022-11-26T20:55:08.628Z,83.62
2022-11-26T20:57:39.978Z,83.68
2022-11-26T21:00:08.915Z,83.73
2022-11-26T21:02:38.147Z,83.73
2022-11-26T21:05:07.250Z,83.75
2022-11-26T21:07:35.326Z,83.76
2022-11-26T21:10:04.179Z,83.73
2022-11-26T21:12:32.140Z,83.67
2022-11-26T21:15:00.015Z,83.74
2022-11-26T21:17:30.912Z,83.78
2022-11-26T21:19:59.858Z,83.84
2022-11-26T21:22:27.833Z,83.91
2022-11-26T21:24:55.588Z,83.91
2022-11-26T21:27:23.480Z,83.90
2022-11-26T21:29:50.952Z,83.89
2022-11-26T21:32:18.729Z,83.86
2022-11-26T21:34:46.743Z,83.76
2022-11-26T21:37:14.425Z,83.73
2022-11-26T21:39:42.479Z,83.77
2022-11-26T21:42:10.357Z,83.74
2022-11-26T21:44:38.179Z,83.76
2022-11-26T21:47:06.138Z,83.80
2022-11-26T21:49:34.186Z,83.85
2022-11-26T21:52:01.915Z,83.86
2022-11-26T21:54:29.709Z,83.81
2022-11-26T21:56:57.834Z,83.80
2022-11-26T21:59:25.851Z,83.82
2022-11-26T22:01:54.037Z,83.86
2022-11-26T22:04:21.782Z,83.88
2022-11-26T22:06:49.628Z,83.95
2022-11-26T22:09:17.675Z,83.96
2022-11-26T22:11:46.120Z,83.94
2022-11-26T22:14:15.613Z,83.96
2022-11-26T22:16:44.058Z,84.05
2022-11-26T22:19:11.752Z,84.10
2022-11-26T22:21:42.128Z,84.15
2022-11-26T22:24:19.624Z,84.20
2022-11-26T22:26:47.904Z,84.21
2022-11-26T22:29:17.832Z,84.22
2022-11-26T22:31:47.687Z,84.25
2022-11-26T22:34:18.210Z,84.35
2022-11-26T22:36:47.240Z,84.40
2022-11-26T22:39:17.956Z,84.44
2022-11-26T22:41:47.779Z,84.48
2022-11-26T22:44:16.833Z,84.50
2022-11-26T22:46:45.382Z,84.55
2022-11-26T22:49:17.366Z,84.60
2022-11-26T22:51:46.929Z,84.64
2022-11-26T22:54:17.690Z,84.73
2022-11-26T22:56:45.496Z,84.72
2022-11-26T22:59:16.515Z,84.75
2022-11-26T23:01:44.663Z,84.77
2022-11-26T23:04:12.803Z,84.82
2022-11-26T23:06:40.841Z,84.86
2022-11-26T23:09:09.445Z,84.88
2022-11-26T23:11:40.205Z,84.88
2022-11-26T23:14:10.858Z,84.90
2022-11-26T23:16:41.509Z,84.91
2022-11-26T23:19:11.848Z,84.95
2022-11-26T23:21:41.192Z,84.95
2022-11-26T23:24:09.762Z,84.97
2022-11-26T23:26:39.266Z,85.02
2022-11-26T23:29:08.433Z,85.04
2022-11-26T23:31:40.605Z,85.06
2022-11-26T23:34:09.573Z,85.01
2022-11-26T23:36:38.352Z,84.97
2022-11-26T23:39:10.123Z,84.99
2022-11-26T23:41:38.154Z,85.02
2022-11-26T23:44:05.906Z,85.06
2022-11-26T23:46:37.002Z,85.08
2022-11-26T23:49:04.896Z,85.05
2022-11-26T23:51:34.076Z,85.10
2022-11-26T23:54:01.885Z,85.13
2022-11-26T23:56:33.117Z,85.16
2022-11-26T23:59:04.252Z,85.19
